createdAt,value
2024-05-09T00:00:46.953Z,1.1
2024-05-09T00:02:03.255Z,1.1
2024-05-09T00:03:19.541Z,0.9
2024-05-09T00:04:35.835Z,1
2024-05-09T00:05:52.129Z,1
2024-05-09T00:07:08.421Z,1.1
2024-05-09T00:08:24.718Z,1.2
2024-05-09T00:09:41.018Z,1
2024-05-09T00:10:56.329Z,0.9
2024-05-09T00:12:12.655Z,1
2024-05-09T00:13:28.913Z,1.2
2024-05-09T00:14:45.205Z,1.1
2024-05-09T00:16:01.507Z,1.2
2024-05-09T00:17:17.751Z,1
2024-05-09T00:18:34.007Z,1.3
2024-05-09T00:19:50.303Z,1.3
2024-05-09T00:21:06.596Z,1.6
2024-05-09T00:22:22.891Z,1.3
2024-05-09T00:23:39.178Z,1.1
2024-05-09T00:24:55.477Z,1
2024-05-09T00:26:11.762Z,1.3
2024-05-09T00:27:27.083Z,1.3
2024-05-09T00:28:43.376Z,1.4
2024-05-09T00:29:59.666Z,1.7
2024-05-09T00:31:15.954Z,2.1
2024-05-09T00:32:32.249Z,1.5
2024-05-09T00:33:48.549Z,1.4
2024-05-09T00:35:04.844Z,1.5
2024-05-09T00:36:21.150Z,1.4
2024-05-09T00:37:37.461Z,1.7
2024-05-09T00:38:53.767Z,1.9
2024-05-09T00:40:10.023Z,1.6
2024-05-09T00:41:26.318Z,1.8
2024-05-09T00:42:42.623Z,1.3
2024-05-09T00:43:57.916Z,1.3
2024-05-09T00:45:14.215Z,1.5
2024-05-09T00:46:30.543Z,1.6
2024-05-09T00:47:46.801Z,1.7
2024-05-09T00:49:03.123Z,1.7
2024-05-09T00:50:19.403Z,1.5
2024-05-09T00:51:35.694Z,1.4
2024-05-09T00:52:51.993Z,1.8
2024-05-09T00:54:08.308Z,1.4
2024-05-09T00:55:24.570Z,1.8
2024-05-09T00:56:40.874Z,1.3
2024-05-09T00:57:57.159Z,1.6
2024-05-09T00:59:13.461Z,1.3
2024-05-09T01:00:28.769Z,1.2
2024-05-09T01:01:45.059Z,1.5
2024-05-09T01:03:01.394Z,1.4
2024-05-09T01:04:17.652Z,1.6
2024-05-09T01:05:33.941Z,2
2024-05-09T01:06:50.234Z,1.3
2024-05-09T01:08:06.526Z,1.4
2024-05-09T01:09:22.856Z,1.2
2024-05-09T01:10:39.125Z,1.5
2024-05-09T01:11:55.420Z,1.4
2024-05-09T01:13:11.716Z,1.4
2024-05-09T01:14:28.012Z,1.1
2024-05-09T01:15:44.308Z,1.1
2024-05-09T01:16:59.634Z,1.3
2024-05-09T01:18:15.911Z,1.3
2024-05-09T01:19:32.194Z,1.4
2024-05-09T01:20:48.504Z,1.2
2024-05-09T01:22:04.793Z,1.2
2024-05-09T01:23:21.089Z,1.2
2024-05-09T01:24:37.379Z,0.9
2024-05-09T01:25:53.672Z,1.1
2024-05-09T01:27:09.997Z,0.9
2024-05-09T01:28:26.258Z,0.9
2024-05-09T01:29:42.564Z,1.1
2024-05-09T01:30:58.856Z,1.2
2024-05-09T01:32:15.173Z,1.3
2024-05-09T01:33:30.452Z,1.1
2024-05-09T01:34:46.744Z,1.2
2024-05-09T01:36:03.050Z,1
2024-05-09T01:37:19.348Z,0.8
2024-05-09T01:38:35.640Z,1.2
2024-05-09T01:39:51.925Z,1.1
2024-05-09T01:41:08.217Z,1.2
2024-05-09T01:42:24.518Z,1.3
2024-05-09T01:43:40.811Z,0.8
2024-05-09T01:44:57.117Z,0.9
2024-05-09T01:46:13.408Z,1.1
2024-05-09T01:47:29.694Z,1.6
2024-05-09T01:48:45.999Z,0.7
2024-05-09T01:50:01.306Z,0.8
2024-05-09T01:51:17.589Z,1.4
2024-05-09T01:52:33.892Z,1.3
2024-05-09T01:53:50.187Z,0.9
2024-05-09T01:55:06.473Z,1.7
2024-05-09T01:56:22.768Z,1.5
2024-05-09T01:57:38.083Z,1.2
2024-05-09T01:58:54.387Z,0.9
2024-05-09T02:00:10.674Z,1.7
2024-05-09T02:01:26.973Z,1.3
2024-05-09T02:02:43.276Z,1.1
2024-05-09T02:03:59.558Z,1
2024-05-09T02:05:15.852Z,1.1
2024-05-09T02:06:32.159Z,1.1
2024-05-09T02:07:48.454Z,1
2024-05-09T02:09:04.752Z,1.4
2024-05-09T02:10:21.046Z,1.6
2024-05-09T02:11:37.342Z,1.6
2024-05-09T02:12:53.638Z,1.4
2024-05-09T02:14:08.934Z,1.2
2024-05-09T02:15:25.230Z,1.3
2024-05-09T02:16:41.531Z,1.2
2024-05-09T02:17:57.824Z,1.4
2024-05-09T02:19:14.120Z,0.9
2024-05-09T02:20:30.420Z,1.3
2024-05-09T02:21:46.704Z,1.3
2024-05-09T02:23:03.011Z,1.4
2024-05-09T02:24:19.301Z,1.3
2024-05-09T02:25:35.598Z,0.9
2024-05-09T02:26:51.882Z,1.6
2024-05-09T02:28:08.179Z,1.1
2024-05-09T02:29:24.480Z,1.4
2024-05-09T02:30:39.779Z,1.6
2024-05-09T02:31:56.123Z,1.3
2024-05-09T02:33:12.410Z,1
2024-05-09T02:34:28.661Z,1
2024-05-09T02:35:44.960Z,1.1
2024-05-09T02:37:01.259Z,0.9
2024-05-09T02:38:17.549Z,1.3
2024-05-09T02:39:33.853Z,1.2
2024-05-09T02:40:50.140Z,1.5
2024-05-09T02:42:06.442Z,0.9
2024-05-09T02:43:22.730Z,1
2024-05-09T02:44:39.018Z,1.2
2024-05-09T02:45:55.321Z,1.1
2024-05-09T02:47:10.625Z,1.3
2024-05-09T02:48:26.966Z,1.1
2024-05-09T02:49:43.216Z,1.2
2024-05-09T02:50:59.515Z,0.8
2024-05-09T02:52:15.821Z,1.5
2024-05-09T02:53:32.104Z,1.2
2024-05-09T02:54:48.394Z,1.1
2024-05-09T02:56:04.704Z,1.4
2024-05-09T02:57:20.993Z,1.3
2024-05-09T02:58:37.228Z,1.2
2024-05-09T02:59:53.534Z,1.7
2024-05-09T03:01:09.821Z,1.3
2024-05-09T03:02:26.118Z,1.4
2024-05-09T03:03:41.379Z,1.1
2024-05-09T03:04:57.678Z,1.1
2024-05-09T03:06:14.011Z,1.2
2024-05-09T03:07:30.267Z,0.9
2024-05-09T03:08:46.572Z,1.2
2024-05-09T03:10:02.865Z,1
2024-05-09T03:11:19.150Z,1.5
2024-05-09T03:12:35.456Z,1.2
2024-05-09T03:13:51.691Z,1.4
2024-05-09T03:15:07.948Z,1.3
2024-05-09T03:16:24.186Z,1.5
2024-05-09T03:17:40.428Z,1.4
2024-05-09T03:18:56.667Z,1.2
2024-05-09T03:20:11.917Z,1.7
2024-05-09T03:21:28.150Z,1.4
2024-05-09T03:22:44.396Z,1.3
2024-05-09T03:24:00.644Z,1.2
2024-05-09T03:25:16.893Z,1
2024-05-09T03:26:33.134Z,1.4
2024-05-09T03:27:49.372Z,1.2
2024-05-09T03:29:05.597Z,1.4
2024-05-09T03:30:21.854Z,1.4
2024-05-09T03:31:38.076Z,1.2
2024-05-09T03:32:54.333Z,1
2024-05-09T03:34:10.563Z,1.5
2024-05-09T03:35:26.803Z,1.6
2024-05-09T03:36:42.060Z,1.8
2024-05-09T03:37:58.300Z,1.2
2024-05-09T03:39:14.546Z,1.3
2024-05-09T03:40:30.795Z,1.4
2024-05-09T03:41:47.017Z,1.7
2024-05-09T03:43:03.276Z,1.3
2024-05-09T03:44:19.502Z,1.5
2024-05-09T03:45:35.748Z,1.4
2024-05-09T03:46:51.990Z,1.4
2024-05-09T03:48:08.228Z,1.2
2024-05-09T03:49:24.508Z,1.4
2024-05-09T03:50:40.711Z,1.6
2024-05-09T03:51:56.954Z,1.4
2024-05-09T03:53:12.211Z,1.2
2024-05-09T03:54:28.458Z,1.6
2024-05-09T03:55:44.689Z,1.3
2024-05-09T03:57:00.933Z,1.6
2024-05-09T03:58:17.165Z,1.5
2024-05-09T03:59:33.421Z,1.4
2024-05-09T04:00:49.648Z,1.2
2024-05-09T04:02:05.900Z,1.3
2024-05-09T04:03:22.138Z,1.3
2024-05-09T04:04:38.381Z,1.8
2024-05-09T04:05:54.620Z,1.1
2024-05-09T04:07:10.863Z,1.1
2024-05-09T04:09:43.379Z,1.5
2024-05-09T04:10:58.587Z,1.7
2024-05-09T04:12:14.836Z,1.7
2024-05-09T04:13:31.073Z,1.6
2024-05-09T04:14:47.316Z,1.8
2024-05-09T04:16:03.557Z,2
2024-05-09T04:17:19.798Z,1.7
2024-05-09T04:18:36.036Z,1.3
2024-05-09T04:19:52.286Z,1.6
2024-05-09T04:21:08.527Z,1.4
2024-05-09T04:22:24.770Z,1.8
2024-05-09T04:23:40.999Z,1.7
2024-05-09T04:24:57.248Z,1.9
2024-05-09T04:26:13.478Z,1.9
2024-05-09T04:27:28.741Z,1.1
2024-05-09T04:28:44.974Z,1.1
2024-05-09T04:30:01.231Z,1.5
2024-05-09T04:31:17.453Z,1.8
2024-05-09T04:32:33.709Z,1.2
2024-05-09T04:33:49.947Z,1.3
2024-05-09T04:35:06.182Z,1.5
2024-05-09T04:37:38.665Z,1.7
2024-05-09T04:38:54.898Z,1.7
2024-05-09T04:40:11.150Z,1.6
2024-05-09T04:41:27.383Z,1.5
2024-05-09T04:42:43.636Z,1.9
2024-05-09T04:43:58.885Z,1.3
2024-05-09T04:45:15.116Z,1.1
2024-05-09T04:46:31.376Z,1.4
2024-05-09T04:47:47.610Z,1.7
2024-05-09T04:49:03.851Z,1.3
2024-05-09T04:50:20.120Z,1.5
2024-05-09T04:51:36.334Z,1.4
2024-05-09T04:52:52.566Z,1.4
2024-05-09T04:54:08.811Z,1.3
2024-05-09T04:55:25.081Z,1.5
2024-05-09T04:56:41.296Z,1.3
2024-05-09T04:57:57.542Z,1.6
2024-05-09T04:59:13.781Z,1.9
2024-05-09T05:00:29.059Z,1.4
2024-05-09T05:01:45.269Z,1.8
2024-05-09T05:03:01.514Z,1.6
2024-05-09T05:04:17.752Z,1.8
2024-05-09T05:05:34.026Z,2
2024-05-09T05:06:50.234Z,1.5
2024-05-09T05:08:06.463Z,1.8
2024-05-09T05:09:22.708Z,2
2024-05-09T05:10:38.947Z,1.7
2024-05-09T05:11:55.197Z,1.4
2024-05-09T05:13:11.475Z,1.6
2024-05-09T05:14:27.672Z,1.8
2024-05-09T05:15:43.916Z,2
2024-05-09T05:16:59.180Z,1.6
2024-05-09T05:18:15.408Z,2.1
2024-05-09T05:19:31.650Z,1.3
2024-05-09T05:20:47.890Z,1.8
2024-05-09T05:22:04.139Z,1.7
2024-05-09T05:23:20.371Z,1.7
2024-05-09T05:24:36.623Z,1.6
2024-05-09T05:25:52.864Z,1.7
2024-05-09T05:28:25.370Z,1.7
2024-05-09T05:29:41.574Z,1.6
2024-05-09T05:30:57.828Z,1.6
2024-05-09T05:32:14.068Z,1.3
2024-05-09T05:33:29.320Z,1.5
2024-05-09T05:34:45.552Z,1.9
2024-05-09T05:36:01.803Z,2.3
2024-05-09T05:37:18.031Z,1.7
2024-05-09T05:38:34.273Z,1.5
2024-05-09T05:39:50.524Z,2.1
2024-05-09T05:41:06.748Z,3.1
2024-05-09T05:42:23.031Z,3.2
2024-05-09T05:43:39.240Z,3.2
2024-05-09T05:44:55.480Z,2.3
2024-05-09T05:46:11.718Z,2.3
2024-05-09T05:47:27.969Z,1.6
2024-05-09T05:48:44.193Z,1.8
2024-05-09T05:49:59.465Z,1.7
2024-05-09T05:51:15.692Z,1.7
2024-05-09T05:52:31.935Z,1.7
2024-05-09T05:53:48.185Z,1.5
2024-05-09T05:55:04.424Z,1.8
2024-05-09T05:56:20.664Z,1.5
2024-05-09T05:57:36.906Z,1.8
2024-05-09T05:58:53.131Z,1.6
2024-05-09T06:00:09.378Z,1.9
2024-05-09T06:01:25.614Z,1.8
2024-05-09T06:02:41.871Z,2.5
2024-05-09T06:03:58.145Z,1.8
2024-05-09T06:05:14.341Z,1.8
2024-05-09T06:06:29.597Z,1.6
2024-05-09T06:07:45.846Z,1.9
2024-05-09T06:09:02.081Z,2
2024-05-09T06:10:18.319Z,2.2
2024-05-09T06:11:34.558Z,2.3
2024-05-09T06:12:49.817Z,1.8
2024-05-09T06:14:06.100Z,1.9
2024-05-09T06:15:22.302Z,2.3
2024-05-09T06:16:38.554Z,1.8
2024-05-09T06:17:54.781Z,2.2
2024-05-09T06:19:11.035Z,2.4
2024-05-09T06:20:27.261Z,1.7
2024-05-09T06:21:43.542Z,1.3
2024-05-09T06:22:59.740Z,1.9
2024-05-09T06:24:15.993Z,2.2
2024-05-09T06:25:32.231Z,2.1
2024-05-09T06:26:48.458Z,2.3
2024-05-09T06:28:04.704Z,1.7
2024-05-09T06:29:19.967Z,1.7
2024-05-09T06:30:36.199Z,2.4
2024-05-09T06:31:52.435Z,2.1
2024-05-09T06:33:08.678Z,2.2
2024-05-09T06:34:24.915Z,2.4
2024-05-09T06:35:41.173Z,1.5
2024-05-09T06:36:57.400Z,1.5
2024-05-09T06:38:13.637Z,2
2024-05-09T06:39:29.000Z,1.9
2024-05-09T06:40:46.124Z,1.5
2024-05-09T06:42:02.358Z,1.9
2024-05-09T06:43:18.598Z,1.4
2024-05-09T06:44:34.840Z,1.8
2024-05-09T06:45:50.104Z,1.7
2024-05-09T06:47:06.354Z,1.5
2024-05-09T06:48:22.593Z,1.8
2024-05-09T06:49:38.827Z,1.7
2024-05-09T06:50:55.067Z,2.2
2024-05-09T06:52:11.299Z,2
2024-05-09T06:53:27.554Z,1.6
2024-05-09T06:54:43.793Z,1.6
2024-05-09T06:56:00.032Z,2
2024-05-09T06:57:16.267Z,1.7
2024-05-09T06:58:32.510Z,2.1
2024-05-09T06:59:48.740Z,1.7
2024-05-09T07:01:04.981Z,1.6
2024-05-09T07:02:20.249Z,1.9
2024-05-09T07:03:36.495Z,2.2
2024-05-09T07:04:52.733Z,1.3
2024-05-09T07:06:08.956Z,1.6
2024-05-09T07:07:25.213Z,2.4
2024-05-09T07:08:41.451Z,2.3
2024-05-09T07:09:57.694Z,1.4
2024-05-09T07:11:13.926Z,1.7
2024-05-09T07:12:30.170Z,2.1
2024-05-09T07:13:46.408Z,1.9
2024-05-09T07:15:02.645Z,1.4
2024-05-09T07:16:18.888Z,2
2024-05-09T07:17:35.120Z,1.6
2024-05-09T07:18:50.387Z,1.4
2024-05-09T07:20:06.615Z,1.9
2024-05-09T07:21:22.867Z,1.4
2024-05-09T07:22:39.143Z,1.7
2024-05-09T07:23:55.355Z,1.3
2024-05-09T07:25:11.577Z,1.6
2024-05-09T07:26:27.824Z,1.6
2024-05-09T07:27:44.060Z,1.5
2024-05-09T07:29:00.299Z,1.4
2024-05-09T07:30:16.553Z,1.7
2024-05-09T07:31:32.781Z,1.7
2024-05-09T07:32:49.020Z,1.5
2024-05-09T07:34:05.262Z,1.5
2024-05-09T07:35:20.564Z,1.9
2024-05-09T07:36:36.755Z,1.2
2024-05-09T07:37:53.007Z,1.8
2024-05-09T07:39:09.248Z,1.8
2024-05-09T07:40:25.519Z,1.7
2024-05-09T07:41:41.731Z,1.2
2024-05-09T07:42:57.955Z,1
2024-05-09T07:44:14.210Z,1.2
2024-05-09T07:45:30.435Z,1.2
2024-05-09T07:46:46.681Z,1.3
2024-05-09T07:48:02.935Z,1.3
2024-05-09T07:49:19.167Z,1.3
2024-05-09T07:50:35.400Z,1.3
2024-05-09T07:51:50.654Z,1.4
2024-05-09T07:53:06.896Z,1.2
2024-05-09T07:54:23.145Z,1.6
2024-05-09T07:55:39.378Z,1.3
2024-05-09T07:56:55.615Z,1.1
2024-05-09T07:58:11.860Z,1.3
2024-05-09T07:59:28.111Z,1.1
2024-05-09T08:00:44.383Z,1.3
2024-05-09T08:02:00.582Z,1.2
2024-05-09T08:03:16.832Z,1.2
2024-05-09T08:04:33.070Z,1.2
2024-05-09T08:05:49.295Z,1.4
2024-05-09T08:07:05.540Z,1
2024-05-09T08:08:20.804Z,1.2
2024-05-09T08:09:37.032Z,1.1
2024-05-09T08:10:53.277Z,1.2
2024-05-09T08:12:09.524Z,0.8
2024-05-09T08:13:25.751Z,1.3
2024-05-09T08:14:42.004Z,0.8
2024-05-09T08:15:58.285Z,1.1
2024-05-09T08:17:14.473Z,1
2024-05-09T08:18:30.729Z,0.9
2024-05-09T08:19:46.965Z,1.2
2024-05-09T08:21:03.201Z,0.6
2024-05-09T08:22:19.432Z,0.7
2024-05-09T08:23:35.676Z,0.8
2024-05-09T08:24:50.938Z,0.9
2024-05-09T08:26:07.175Z,0.9
2024-05-09T08:27:23.420Z,1
2024-05-09T08:28:39.650Z,1.2
2024-05-09T08:29:55.896Z,0.9
2024-05-09T08:31:12.141Z,0.7
2024-05-09T08:32:28.370Z,1.2
2024-05-09T08:33:44.620Z,0.9
2024-05-09T08:35:00.870Z,0.7
2024-05-09T08:36:17.095Z,1.3
2024-05-09T08:37:33.347Z,1.1
2024-05-09T08:38:49.579Z,0.8
2024-05-09T08:40:05.828Z,0.7
2024-05-09T08:41:21.087Z,0.7
2024-05-09T08:42:37.307Z,0.8
2024-05-09T08:43:53.548Z,0.9
2024-05-09T08:45:09.803Z,0.6
2024-05-09T08:46:26.029Z,0.5
2024-05-09T08:47:42.280Z,0.5
2024-05-09T08:48:58.517Z,0.6
2024-05-09T08:50:14.767Z,0.7
2024-05-09T08:51:31.001Z,0.7
2024-05-09T08:52:47.242Z,1.1
2024-05-09T08:54:03.519Z,0.9
2024-05-09T08:55:19.714Z,1
2024-05-09T08:56:35.955Z,0.9
2024-05-09T08:57:51.224Z,0.5
2024-05-09T08:59:07.464Z,0.9
2024-05-09T09:00:23.691Z,0.6
2024-05-09T09:01:39.929Z,0.7
2024-05-09T09:02:56.167Z,0.9
2024-05-09T09:04:12.424Z,0.9
2024-05-09T09:05:28.656Z,0.7
2024-05-09T09:06:44.897Z,0.9
2024-05-09T09:08:01.130Z,1
2024-05-09T09:09:17.372Z,1
2024-05-09T09:10:33.605Z,0.7
2024-05-09T09:11:49.864Z,1.1
2024-05-09T09:13:06.102Z,1
2024-05-09T09:14:21.355Z,0.7
2024-05-09T09:15:37.602Z,0.9
2024-05-09T09:16:53.880Z,0.8
2024-05-09T09:18:10.065Z,0.8
2024-05-09T09:19:26.301Z,1
2024-05-09T09:20:42.544Z,0.8
2024-05-09T09:21:58.803Z,1.2
2024-05-09T09:23:15.029Z,1.1
2024-05-09T09:24:31.261Z,1
2024-05-09T09:25:47.507Z,0.8
2024-05-09T09:27:03.756Z,0.9
2024-05-09T09:28:19.981Z,0.8
2024-05-09T09:29:36.242Z,1.2
2024-05-09T09:30:51.486Z,0.8
2024-05-09T09:32:07.720Z,0.8
2024-05-09T09:33:24.015Z,1
2024-05-09T09:34:40.262Z,0.7
2024-05-09T09:35:56.451Z,0.5
2024-05-09T09:37:12.000Z,0.9
2024-05-09T09:38:28.928Z,0.6
2024-05-09T09:39:45.160Z,0.7
2024-05-09T09:41:01.412Z,0.7
2024-05-09T09:42:17.648Z,1.1
2024-05-09T09:43:33.890Z,0.7
2024-05-09T09:44:50.127Z,0.7
2024-05-09T09:46:06.376Z,1
2024-05-09T09:47:21.628Z,1.5
2024-05-09T09:48:37.859Z,0.8
2024-05-09T09:49:54.112Z,0.8
2024-05-09T09:51:10.351Z,0.7
2024-05-09T09:52:26.583Z,0.6
2024-05-09T09:53:42.830Z,0.7
2024-05-09T09:54:59.070Z,0.9
2024-05-09T09:56:15.309Z,1
2024-05-09T09:57:31.555Z,1.3
2024-05-09T09:58:47.789Z,0.8
2024-05-09T10:00:04.024Z,1
2024-05-09T10:01:20.270Z,0.8
2024-05-09T10:02:36.508Z,0.8
2024-05-09T10:03:51.768Z,1.1
2024-05-09T10:05:08.001Z,0.9
2024-05-09T10:06:24.246Z,0.6
2024-05-09T10:07:40.485Z,0.9
2024-05-09T10:08:56.725Z,0.8
2024-05-09T10:10:12.971Z,0.8
2024-05-09T10:11:29.196Z,1.3
2024-05-09T10:12:45.445Z,1.1
2024-05-09T10:14:01.680Z,0.8
2024-05-09T10:15:17.978Z,1
2024-05-09T10:16:34.188Z,0.8
2024-05-09T10:17:50.407Z,1.1
2024-05-09T10:19:06.659Z,1
2024-05-09T10:20:21.905Z,1.6
2024-05-09T10:21:38.198Z,0.9
2024-05-09T10:22:54.394Z,1
2024-05-09T10:24:10.630Z,1.2
2024-05-09T10:25:26.873Z,1.2
2024-05-09T10:26:43.110Z,0.9
2024-05-09T10:27:58.376Z,1
2024-05-09T10:29:14.608Z,1
2024-05-09T10:30:30.861Z,0.9
2024-05-09T10:31:47.086Z,0.9
2024-05-09T10:33:03.375Z,0.9
2024-05-09T10:34:19.579Z,1.2
2024-05-09T10:35:35.817Z,1
2024-05-09T10:36:52.073Z,1.1
2024-05-09T10:38:08.299Z,1.3
2024-05-09T10:39:24.538Z,1.1
2024-05-09T10:40:40.844Z,1.2
2024-05-09T10:41:57.023Z,1.4
2024-05-09T10:43:13.259Z,1.1
2024-05-09T10:44:28.525Z,0.9
2024-05-09T10:45:44.767Z,0.8
2024-05-09T10:47:01.058Z,0.9
2024-05-09T10:48:17.248Z,1.3
2024-05-09T10:49:33.485Z,0.9
2024-05-09T10:50:49.770Z,1.1
2024-05-09T10:52:05.959Z,1.2
2024-05-09T10:53:22.198Z,1.1
2024-05-09T10:54:38.437Z,0.7
2024-05-09T10:55:54.732Z,1.2
2024-05-09T10:57:10.918Z,1
2024-05-09T10:58:27.168Z,1.2
2024-05-09T10:59:43.397Z,0.8
2024-05-09T11:00:58.668Z,1.2
2024-05-09T11:02:14.897Z,1.5
2024-05-09T11:03:31.142Z,1.2
2024-05-09T11:04:47.389Z,0.9
2024-05-09T11:06:03.624Z,1.3
2024-05-09T11:07:19.864Z,1
2024-05-09T11:08:36.096Z,0.9
2024-05-09T11:09:52.391Z,1.3
2024-05-09T11:11:08.589Z,0.9
2024-05-09T11:12:24.813Z,1.1
2024-05-09T11:13:41.054Z,0.9
2024-05-09T11:14:57.296Z,1
2024-05-09T11:16:13.534Z,1.1
2024-05-09T11:17:28.799Z,1.3
2024-05-09T11:18:45.049Z,1.2
2024-05-09T11:20:01.280Z,1
2024-05-09T11:21:17.513Z,1.1
2024-05-09T11:22:33.752Z,1.3
2024-05-09T11:23:49.991Z,1.1
2024-05-09T11:25:06.247Z,1.4
2024-05-09T11:26:22.522Z,1.1
2024-05-09T11:27:38.000Z,1.1
2024-05-09T11:28:54.968Z,1.1
2024-05-09T11:30:11.207Z,1.2
2024-05-09T11:31:27.432Z,1.3
2024-05-09T11:32:43.684Z,0.9
2024-05-09T11:33:58.940Z,1.2
2024-05-09T11:35:15.171Z,1.1
2024-05-09T11:36:31.422Z,0.9
2024-05-09T11:37:47.698Z,1
2024-05-09T11:39:03.890Z,1.1
2024-05-09T11:40:20.142Z,1.5
2024-05-09T11:41:36.419Z,0.8
2024-05-09T11:42:52.614Z,1.5
2024-05-09T11:44:08.846Z,1.3
2024-05-09T11:45:25.102Z,0.8
2024-05-09T11:46:41.380Z,1.1
2024-05-09T11:47:57.637Z,1
2024-05-09T11:49:13.865Z,1.1
2024-05-09T11:50:29.066Z,1.2
2024-05-09T11:51:45.318Z,1
2024-05-09T11:53:01.555Z,1.1
2024-05-09T11:54:17.802Z,1.2
2024-05-09T11:55:34.034Z,1.1
2024-05-09T11:56:50.283Z,1
2024-05-09T11:58:06.520Z,0.9
2024-05-09T11:59:22.746Z,1.3
2024-05-09T12:00:38.987Z,1.4
2024-05-09T12:01:55.233Z,0.8
2024-05-09T12:03:11.527Z,1
2024-05-09T12:04:27.718Z,1.1
2024-05-09T12:05:43.961Z,1.5
2024-05-09T12:06:59.267Z,0.8
2024-05-09T12:08:15.453Z,1.3
2024-05-09T12:09:31.690Z,1
2024-05-09T12:10:47.926Z,1.2
2024-05-09T12:12:04.179Z,0.8
2024-05-09T12:13:20.417Z,1.7
2024-05-09T12:14:36.648Z,1.3
2024-05-09T12:15:52.891Z,1.4
2024-05-09T12:17:09.179Z,0.8
2024-05-09T12:18:25.365Z,1.3
2024-05-09T12:19:41.609Z,1.1
2024-05-09T12:20:57.856Z,1.4
2024-05-09T12:22:14.090Z,0.9
2024-05-09T12:23:29.356Z,1.1
2024-05-09T12:24:45.580Z,1.1
2024-05-09T12:26:01.824Z,1.1
2024-05-09T12:27:18.115Z,0.8
2024-05-09T12:28:34.301Z,0.9
2024-05-09T12:29:50.560Z,1.3
2024-05-09T12:31:06.797Z,1.4
2024-05-09T12:32:23.039Z,1.2
2024-05-09T12:33:39.272Z,1.5
2024-05-09T12:34:55.509Z,1
2024-05-09T12:36:11.757Z,1.2
2024-05-09T12:37:27.995Z,1.2
2024-05-09T12:38:44.222Z,1.3
2024-05-09T12:39:59.487Z,1.1
2024-05-09T12:41:15.725Z,1.3
2024-05-09T12:42:31.964Z,1.1
2024-05-09T12:43:48.212Z,1.3
2024-05-09T12:45:04.450Z,1.1
2024-05-09T12:46:20.698Z,1.3
2024-05-09T12:47:36.931Z,0.8
2024-05-09T12:48:53.160Z,1.1
2024-05-09T12:50:09.413Z,0.9
2024-05-09T12:51:25.660Z,1
2024-05-09T12:52:41.899Z,1.1
2024-05-09T12:53:58.131Z,1.3
2024-05-09T12:55:14.368Z,1.2
2024-05-09T12:56:29.616Z,0.9
2024-05-09T12:57:45.873Z,1.1
2024-05-09T12:59:02.098Z,1.3
2024-05-09T13:00:18.341Z,0.9
2024-05-09T13:01:34.581Z,1.1
2024-05-09T13:02:50.823Z,1.2
2024-05-09T13:04:07.064Z,1.2
2024-05-09T13:05:23.308Z,0.9
2024-05-09T13:06:39.535Z,1
2024-05-09T13:07:55.795Z,0.7
2024-05-09T13:09:12.019Z,1.2
2024-05-09T13:10:28.265Z,1.2
2024-05-09T13:11:44.513Z,1
2024-05-09T13:12:59.775Z,0.9
2024-05-09T13:14:16.011Z,1.2
2024-05-09T13:15:32.245Z,0.9
2024-05-09T13:16:48.479Z,0.9
2024-05-09T13:18:04.718Z,0.7
2024-05-09T13:19:20.968Z,1.1
2024-05-09T13:20:37.217Z,0.9
2024-05-09T13:21:53.446Z,0.9
2024-05-09T13:23:09.676Z,1.2
2024-05-09T13:24:25.930Z,0.8
2024-05-09T13:25:42.167Z,0.8
2024-05-09T13:26:58.395Z,0.6
2024-05-09T13:28:14.645Z,1
2024-05-09T13:29:29.904Z,0.6
2024-05-09T13:30:46.137Z,0.8
2024-05-09T13:32:02.380Z,1
2024-05-09T13:33:18.620Z,1.1
2024-05-09T13:34:34.000Z,0.7
2024-05-09T13:35:51.101Z,0.8
2024-05-09T13:37:07.341Z,0.7
2024-05-09T13:38:23.580Z,0.8
2024-05-09T13:39:39.820Z,0.8
2024-05-09T13:40:56.072Z,0.8
2024-05-09T13:42:12.306Z,0.8
2024-05-09T13:43:28.533Z,0.7
2024-05-09T13:44:44.776Z,0.8
2024-05-09T13:46:00.031Z,1.1
2024-05-09T13:47:16.281Z,0.9
2024-05-09T13:48:32.519Z,1
2024-05-09T13:49:48.763Z,0.8
2024-05-09T13:51:05.001Z,0.7
2024-05-09T13:52:21.231Z,1
2024-05-09T13:53:37.478Z,0.8
2024-05-09T13:54:53.718Z,0.7
2024-05-09T13:56:09.964Z,0.9
2024-05-09T13:57:26.199Z,1.1
2024-05-09T13:58:42.443Z,0.8
2024-05-09T13:59:58.671Z,0.8
2024-05-09T14:01:14.920Z,0.7
2024-05-09T14:02:30.181Z,1.3
2024-05-09T14:03:46.420Z,1.1
2024-05-09T14:05:02.649Z,0.7
2024-05-09T14:06:18.907Z,0.9
2024-05-09T14:07:35.136Z,0.8
2024-05-09T14:08:51.378Z,0.8
2024-05-09T14:11:23.867Z,0.8
2024-05-09T14:12:40.088Z,0.6
2024-05-09T14:13:56.339Z,0.6
2024-05-09T14:15:12.578Z,1
2024-05-09T14:16:28.809Z,0.8
2024-05-09T14:17:45.059Z,1
2024-05-09T14:19:00.323Z,0.7
2024-05-09T14:20:16.559Z,1
2024-05-09T14:21:32.795Z,1
2024-05-09T14:22:49.038Z,0.8
2024-05-09T14:24:05.270Z,0.9
2024-05-09T14:25:21.512Z,1.1
2024-05-09T14:26:37.754Z,0.8
2024-05-09T14:27:53.990Z,0.7
2024-05-09T14:29:10.230Z,0.9
2024-05-09T14:30:26.484Z,0.8
2024-05-09T14:31:42.711Z,0.7
2024-05-09T14:32:58.961Z,0.8
2024-05-09T14:34:15.200Z,0.8
2024-05-09T14:35:30.446Z,0.7
2024-05-09T14:36:46.704Z,0.6
2024-05-09T14:38:02.933Z,1.1
2024-05-09T14:39:19.164Z,0.9
2024-05-09T14:40:35.410Z,1
2024-05-09T14:41:51.651Z,1.1
2024-05-09T14:43:06.913Z,0.6
2024-05-09T14:44:23.156Z,0.8
2024-05-09T14:45:39.392Z,0.7
2024-05-09T14:46:55.636Z,0.7
2024-05-09T14:48:11.889Z,0.7
2024-05-09T14:49:28.111Z,0.7
2024-05-09T14:50:44.359Z,0.7
2024-05-09T14:52:00.609Z,0.9
2024-05-09T14:53:16.837Z,0.6
2024-05-09T14:54:33.079Z,0.6
2024-05-09T14:55:49.307Z,0.9
2024-05-09T14:57:05.561Z,0.7
2024-05-09T14:58:21.788Z,0.8
2024-05-09T14:59:37.051Z,0.9
2024-05-09T15:00:53.304Z,0.9
2024-05-09T15:02:09.539Z,0.8
2024-05-09T15:03:25.769Z,0.9
2024-05-09T15:04:42.007Z,0.7
2024-05-09T15:05:58.258Z,0.9
2024-05-09T15:07:14.503Z,0.7
2024-05-09T15:08:30.743Z,1
2024-05-09T15:09:46.990Z,0.8
2024-05-09T15:11:03.217Z,1
2024-05-09T15:12:19.450Z,0.7
2024-05-09T15:13:35.703Z,0.8
2024-05-09T15:14:51.936Z,0.8
2024-05-09T15:16:07.184Z,0.7
2024-05-09T15:17:23.439Z,0.9
2024-05-09T15:18:39.680Z,0.6
2024-05-09T15:19:55.922Z,0.8
2024-05-09T15:21:12.146Z,0.6
2024-05-09T15:22:28.389Z,0.4
2024-05-09T15:23:44.641Z,0.7
2024-05-09T15:25:00.875Z,0.6
2024-05-09T15:26:17.134Z,0.7
2024-05-09T15:27:33.363Z,0.9
2024-05-09T15:28:49.606Z,1
2024-05-09T15:30:05.846Z,0.8
2024-05-09T15:31:22.077Z,0.8
2024-05-09T15:32:37.335Z,0.6
2024-05-09T15:33:53.573Z,0.7
2024-05-09T15:35:09.826Z,0.6
2024-05-09T15:36:26.055Z,0.6
2024-05-09T15:37:42.304Z,0.7
2024-05-09T15:38:58.548Z,0.8
2024-05-09T15:40:14.782Z,1.2
2024-05-09T15:41:31.022Z,0.8
2024-05-09T15:42:47.273Z,0.9
2024-05-09T15:44:03.514Z,0.9
2024-05-09T15:45:19.742Z,0.9
2024-05-09T15:46:35.991Z,0.8
2024-05-09T15:47:52.230Z,0.6
2024-05-09T15:49:07.483Z,0.7
2024-05-09T15:50:23.717Z,0.7
2024-05-09T15:51:39.963Z,0.9
2024-05-09T15:52:56.192Z,0.9
2024-05-09T15:54:12.432Z,0.8
2024-05-09T15:55:28.679Z,0.9
2024-05-09T15:56:44.930Z,0.9
2024-05-09T15:58:01.164Z,1
2024-05-09T15:59:17.394Z,0.9
2024-05-09T16:00:33.644Z,1
2024-05-09T16:01:49.877Z,0.8
2024-05-09T16:03:06.113Z,0.6
2024-05-09T16:04:22.355Z,0.5
2024-05-09T16:05:37.612Z,0.6
2024-05-09T16:06:53.863Z,0.8
2024-05-09T16:08:10.101Z,0.8
2024-05-09T16:09:26.336Z,0.6
2024-05-09T16:10:42.590Z,0.5
2024-05-09T16:11:58.829Z,0.8
2024-05-09T16:13:15.068Z,0.7
2024-05-09T16:14:31.294Z,0.8
2024-05-09T16:15:47.532Z,1
2024-05-09T16:17:03.774Z,0.8
2024-05-09T16:18:20.010Z,1.3
2024-05-09T16:19:36.270Z,1
2024-05-09T16:20:52.496Z,0.9
2024-05-09T16:22:07.756Z,0.8
2024-05-09T16:23:24.006Z,0.7
2024-05-09T16:24:40.234Z,0.8
2024-05-09T16:25:56.471Z,1.1
2024-05-09T16:27:12.726Z,1.1
2024-05-09T16:28:28.963Z,0.8
2024-05-09T16:29:45.188Z,0.7
2024-05-09T16:31:01.438Z,0.7
2024-05-09T16:32:17.669Z,0.8
2024-05-09T16:33:33.912Z,0.5
2024-05-09T16:34:50.166Z,0.5
2024-05-09T16:36:06.394Z,0.7
2024-05-09T16:37:22.645Z,0.8
2024-05-09T16:38:37.893Z,0.8
2024-05-09T16:39:54.136Z,1.2
2024-05-09T16:41:10.379Z,0.8
2024-05-09T16:42:26.624Z,0.9
2024-05-09T16:43:42.865Z,0.7
2024-05-09T16:44:59.105Z,0.8
2024-05-09T16:46:15.330Z,0.7
2024-05-09T16:47:31.572Z,0.7
2024-05-09T16:48:47.821Z,0.9
2024-05-09T16:50:04.051Z,1.1
2024-05-09T16:51:20.293Z,0.8
2024-05-09T16:52:36.549Z,0.7
2024-05-09T16:53:52.781Z,0.7
2024-05-09T16:55:08.042Z,0.9
2024-05-09T16:56:24.285Z,0.7
2024-05-09T16:57:40.521Z,0.7
2024-05-09T16:58:56.757Z,0.6
2024-05-09T17:00:13.006Z,0.9
2024-05-09T17:01:29.000Z,0.9
2024-05-09T17:02:45.473Z,0.9
2024-05-09T17:04:01.709Z,0.8
2024-05-09T17:05:17.952Z,0.9
2024-05-09T17:06:34.191Z,1.2
2024-05-09T17:07:50.433Z,0.8
2024-05-09T17:09:06.690Z,1.3
2024-05-09T17:10:22.919Z,1
2024-05-09T17:11:38.163Z,1.2
2024-05-09T17:12:54.411Z,1.4
2024-05-09T17:14:10.658Z,1.3
2024-05-09T17:15:26.887Z,1.1
2024-05-09T17:16:43.135Z,0.9
2024-05-09T17:17:59.390Z,0.5
2024-05-09T17:19:15.633Z,0.9
2024-05-09T17:20:31.847Z,0.8
2024-05-09T17:21:48.114Z,0.9
2024-05-09T17:23:04.333Z,0.9
2024-05-09T17:24:20.583Z,0.6
2024-05-09T17:25:36.811Z,1.3
2024-05-09T17:26:53.048Z,1.2
2024-05-09T17:28:08.310Z,0.8
2024-05-09T17:29:24.558Z,0.8
2024-05-09T17:30:40.788Z,1.1
2024-05-09T17:31:57.031Z,1.1
2024-05-09T17:33:13.281Z,1.2
2024-05-09T17:34:29.506Z,1.5
2024-05-09T17:35:45.749Z,1
2024-05-09T17:37:02.004Z,1.2
2024-05-09T17:38:18.227Z,1.5
2024-05-09T17:39:34.478Z,1.5
2024-05-09T17:40:50.720Z,1.1